sensor_id;sensor_type;location;lat;lon;timestamp;P1;durP1;ratioP1;P2;durP2;ratioP2
33403;SDS011;19751;40.274;18.268;2023-02-26T00:00:21;25.35;;;8.40;;
33403;SDS011;19751;40.274;18.268;2023-02-26T00:02:47;31.75;;;9.15;;
33403;SDS011;19751;40.274;18.268;2023-02-26T00:05:13;33.75;;;9.20;;
33403;SDS011;19751;40.274;18.268;2023-02-26T00:07:40;39.50;;;8.07;;
33403;SDS011;19751;40.274;18.268;2023-02-26T00:10:07;29.83;;;8.63;;
33403;SDS011;19751;40.274;18.268;2023-02-26T00:12:35;27.23;;;8.13;;
33403;SDS011;19751;40.274;18.268;2023-02-26T00:15:02;36.50;;;8.05;;
33403;SDS011;19751;40.274;18.268;2023-02-26T00:20:13;37.72;;;8.15;;
33403;SDS011;19751;40.274;18.268;2023-02-26T00:22:41;32.35;;;7.88;;
33403;SDS011;19751;40.274;18.268;2023-02-26T00:25:07;36.30;;;8.63;;
33403;SDS011;19751;40.274;18.268;2023-02-26T00:27:33;27.83;;;7.50;;
33403;SDS011;19751;40.274;18.268;2023-02-26T00:29:59;38.53;;;8.73;;
33403;SDS011;19751;40.274;18.268;2023-02-26T00:32:25;51.83;;;11.02;;
33403;SDS011;19751;40.274;18.268;2023-02-26T00:34:53;29.17;;;8.57;;
33403;SDS011;19751;40.274;18.268;2023-02-26T00:42:55;43.20;;;9.23;;
33403;SDS011;19751;40.274;18.268;2023-02-26T00:45:21;37.03;;;9.25;;
33403;SDS011;19751;40.274;18.268;2023-02-26T00:47:52;33.95;;;8.07;;
33403;SDS011;19751;40.274;18.268;2023-02-26T00:50:30;40.83;;;8.65;;
33403;SDS011;19751;40.274;18.268;2023-02-26T00:53:11;41.65;;;7.85;;
33403;SDS011;19751;40.274;18.268;2023-02-26T00:55:51;28.83;;;7.57;;
33403;SDS011;19751;40.274;18.268;2023-02-26T00:58:16;36.22;;;8.35;;
33403;SDS011;19751;40.274;18.268;2023-02-26T01:00:42;29.38;;;7.88;;
33403;SDS011;19751;40.274;18.268;2023-02-26T01:03:07;24.75;;;6.90;;
33403;SDS011;19751;40.274;18.268;2023-02-26T01:05:35;46.95;;;10.27;;
33403;SDS011;19751;40.274;18.268;2023-02-26T01:08:03;28.92;;;8.82;;
33403;SDS011;19751;40.274;18.268;2023-02-26T01:10:30;35.13;;;7.82;;
33403;SDS011;19751;40.274;18.268;2023-02-26T01:12:57;29.23;;;8.60;;
33403;SDS011;19751;40.274;18.268;2023-02-26T01:15:23;31.50;;;7.97;;
33403;SDS011;19751;40.274;18.268;2023-02-26T01:17:50;29.75;;;8.20;;
33403;SDS011;19751;40.274;18.268;2023-02-26T01:20:35;39.65;;;8.68;;
33403;SDS011;19751;40.274;18.268;2023-02-26T01:23:13;43.83;;;9.18;;
33403;SDS011;19751;40.274;18.268;2023-02-26T01:28:19;39.88;;;10.23;;
33403;SDS011;19751;40.274;18.268;2023-02-26T01:30:44;32.17;;;8.05;;
33403;SDS011;19751;40.274;18.268;2023-02-26T01:36:07;40.65;;;10.45;;
33403;SDS011;19751;40.274;18.268;2023-02-26T01:38:41;37.33;;;8.85;;
33403;SDS011;19751;40.274;18.268;2023-02-26T01:47:08;44.70;;;9.90;;
33403;SDS011;19751;40.274;18.268;2023-02-26T01:49:45;38.67;;;9.68;;
33403;SDS011;19751;40.274;18.268;2023-02-26T01:55:01;41.65;;;9.60;;
33403;SDS011;19751;40.274;18.268;2023-02-26T01:57:28;37.85;;;7.78;;
33403;SDS011;19751;40.274;18.268;2023-02-26T01:59:54;31.25;;;6.97;;
33403;SDS011;19751;40.274;18.268;2023-02-26T02:02:20;45.67;;;13.20;;
33403;SDS011;19751;40.274;18.268;2023-02-26T02:04:47;38.55;;;7.95;;
33403;SDS011;19751;40.274;18.268;2023-02-26T02:07:14;35.58;;;8.02;;
33403;SDS011;19751;40.274;18.268;2023-02-26T02:09:41;36.03;;;8.32;;
33403;SDS011;19751;40.274;18.268;2023-02-26T02:23:09;33.17;;;7.35;;
33403;SDS011;19751;40.274;18.268;2023-02-26T02:31:24;35.50;;;7.82;;
33403;SDS011;19751;40.274;18.268;2023-02-26T02:34:10;35.25;;;8.25;;
33403;SDS011;19751;40.274;18.268;2023-02-26T02:36:49;51.72;;;10.70;;
33403;SDS011;19751;40.274;18.268;2023-02-26T02:39:23;42.75;;;8.38;;
33403;SDS011;19751;40.274;18.268;2023-02-26T02:41:58;40.88;;;8.48;;
33403;SDS011;19751;40.274;18.268;2023-02-26T02:44:40;29.52;;;7.90;;
33403;SDS011;19751;40.274;18.268;2023-02-26T02:47:15;45.50;;;9.95;;
33403;SDS011;19751;40.274;18.268;2023-02-26T02:49:52;23.50;;;6.35;;
33403;SDS011;19751;40.274;18.268;2023-02-26T02:52:36;38.00;;;10.43;;
33403;SDS011;19751;40.274;18.268;2023-02-26T02:55:31;31.13;;;7.07;;
33403;SDS011;19751;40.274;18.268;2023-02-26T02:58:19;41.47;;;8.88;;
33403;SDS011;19751;40.274;18.268;2023-02-26T03:00:49;34.08;;;9.23;;
33403;SDS011;19751;40.274;18.268;2023-02-26T03:05:54;43.42;;;8.55;;
33403;SDS011;19751;40.274;18.268;2023-02-26T03:08:21;33.75;;;6.72;;
33403;SDS011;19751;40.274;18.268;2023-02-26T03:10:50;29.67;;;6.57;;
33403;SDS011;19751;40.274;18.268;2023-02-26T03:13:16;44.67;;;8.52;;
33403;SDS011;19751;40.274;18.268;2023-02-26T03:16:09;39.22;;;9.30;;
33403;SDS011;19751;40.274;18.268;2023-02-26T03:24:35;29.15;;;7.00;;
33403;SDS011;19751;40.274;18.268;2023-02-26T03:29:46;35.03;;;7.28;;
33403;SDS011;19751;40.274;18.268;2023-02-26T03:32:21;40.33;;;7.10;;
33403;SDS011;19751;40.274;18.268;2023-02-26T03:35:00;39.42;;;7.50;;
33403;SDS011;19751;40.274;18.268;2023-02-26T03:37:51;36.97;;;8.52;;
33403;SDS011;19751;40.274;18.268;2023-02-26T03:40:23;32.53;;;7.30;;
33403;SDS011;19751;40.274;18.268;2023-02-26T03:42:56;32.60;;;7.07;;
33403;SDS011;19751;40.274;18.268;2023-02-26T03:45:32;41.15;;;7.85;;
33403;SDS011;19751;40.274;18.268;2023-02-26T03:47:59;36.15;;;8.45;;
33403;SDS011;19751;40.274;18.268;2023-02-26T03:50:28;32.88;;;7.30;;
33403;SDS011;19751;40.274;18.268;2023-02-26T03:52:56;24.88;;;6.38;;
33403;SDS011;19751;40.274;18.268;2023-02-26T03:55:27;39.92;;;7.57;;
33403;SDS011;19751;40.274;18.268;2023-02-26T03:57:58;39.65;;;6.82;;
33403;SDS011;19751;40.274;18.268;2023-02-26T04:00:24;30.33;;;7.75;;
33403;SDS011;19751;40.274;18.268;2023-02-26T04:02:55;40.13;;;8.27;;
33403;SDS011;19751;40.274;18.268;2023-02-26T04:05:27;38.90;;;7.20;;
33403;SDS011;19751;40.274;18.268;2023-02-26T04:07:56;37.72;;;10.05;;
33403;SDS011;19751;40.274;18.268;2023-02-26T04:10:33;28.98;;;8.23;;
33403;SDS011;19751;40.274;18.268;2023-02-26T04:13:05;34.25;;;7.90;;
33403;SDS011;19751;40.274;18.268;2023-02-26T04:15:31;35.53;;;8.50;;
33403;SDS011;19751;40.274;18.268;2023-02-26T04:17:56;35.70;;;7.40;;
33403;SDS011;19751;40.274;18.268;2023-02-26T04:20:22;30.40;;;8.68;;
33403;SDS011;19751;40.274;18.268;2023-02-26T04:22:47;38.65;;;9.55;;
33403;SDS011;19751;40.274;18.268;2023-02-26T04:25:13;29.23;;;7.63;;
33403;SDS011;19751;40.274;18.268;2023-02-26T04:27:39;30.77;;;6.80;;
33403;SDS011;19751;40.274;18.268;2023-02-26T04:30:05;30.92;;;9.15;;
33403;SDS011;19751;40.274;18.268;2023-02-26T04:32:31;31.05;;;7.22;;
33403;SDS011;19751;40.274;18.268;2023-02-26T04:34:56;47.75;;;9.10;;
33403;SDS011;19751;40.274;18.268;2023-02-26T04:37:22;32.33;;;8.13;;
33403;SDS011;19751;40.274;18.268;2023-02-26T04:39:47;36.05;;;7.93;;
33403;SDS011;19751;40.274;18.268;2023-02-26T04:42:13;46.17;;;7.70;;
33403;SDS011;19751;40.274;18.268;2023-02-26T04:44:38;36.53;;;7.68;;
33403;SDS011;19751;40.274;18.268;2023-02-26T04:47:04;40.03;;;7.47;;
33403;SDS011;19751;40.274;18.268;2023-02-26T04:49:29;29.30;;;7.63;;
33403;SDS011;19751;40.274;18.268;2023-02-26T04:51:55;28.85;;;6.97;;
33403;SDS011;19751;40.274;18.268;2023-02-26T04:54:21;38.85;;;7.82;;
33403;SDS011;19751;40.274;18.268;2023-02-26T04:56:46;31.25;;;6.90;;
33403;SDS011;19751;40.274;18.268;2023-02-26T04:59:12;40.42;;;8.57;;
33403;SDS011;19751;40.274;18.268;2023-02-26T05:01:37;33.75;;;8.60;;
33403;SDS011;19751;40.274;18.268;2023-02-26T05:04:02;45.72;;;8.52;;
33403;SDS011;19751;40.274;18.268;2023-02-26T05:06:28;41.78;;;8.63;;
33403;SDS011;19751;40.274;18.268;2023-02-26T05:08:53;30.67;;;7.93;;
33403;SDS011;19751;40.274;18.268;2023-02-26T05:11:19;33.08;;;7.47;;
33403;SDS011;19751;40.274;18.268;2023-02-26T05:13:44;30.17;;;7.45;;
33403;SDS011;19751;40.274;18.268;2023-02-26T05:16:10;34.88;;;7.38;;
33403;SDS011;19751;40.274;18.268;2023-02-26T05:18:35;42.85;;;8.32;;
33403;SDS011;19751;40.274;18.268;2023-02-26T05:21:01;33.38;;;9.00;;
33403;SDS011;19751;40.274;18.268;2023-02-26T05:23:26;44.33;;;10.93;;
33403;SDS011;19751;40.274;18.268;2023-02-26T05:25:56;36.03;;;7.93;;
33403;SDS011;19751;40.274;18.268;2023-02-26T05:28:22;47.47;;;7.90;;
33403;SDS011;19751;40.274;18.268;2023-02-26T05:30:49;38.67;;;7.80;;
33403;SDS011;19751;40.274;18.268;2023-02-26T05:33:14;35.88;;;8.63;;
33403;SDS011;19751;40.274;18.268;2023-02-26T05:35:40;31.50;;;8.88;;
33403;SDS011;19751;40.274;18.268;2023-02-26T05:38:05;43.92;;;10.05;;
33403;SDS011;19751;40.274;18.268;2023-02-26T05:40:31;39.55;;;9.98;;
33403;SDS011;19751;40.274;18.268;2023-02-26T05:42:56;39.17;;;9.73;;
33403;SDS011;19751;40.274;18.268;2023-02-26T05:45:22;41.67;;;8.55;;
33403;SDS011;19751;40.274;18.268;2023-02-26T05:47:47;41.33;;;9.65;;
33403;SDS011;19751;40.274;18.268;2023-02-26T05:50:15;32.75;;;8.07;;
33403;SDS011;19751;40.274;18.268;2023-02-26T05:52:41;47.65;;;9.38;;
33403;SDS011;19751;40.274;18.268;2023-02-26T05:55:06;42.97;;;8.13;;
33403;SDS011;19751;40.274;18.268;2023-02-26T05:57:33;47.33;;;9.07;;
33403;SDS011;19751;40.274;18.268;2023-02-26T05:59:58;31.80;;;9.05;;
33403;SDS011;19751;40.274;18.268;2023-02-26T06:02:24;44.80;;;9.55;;
33403;SDS011;19751;40.274;18.268;2023-02-26T06:04:50;40.72;;;8.25;;
33403;SDS011;19751;40.274;18.268;2023-02-26T06:07:15;43.25;;;8.10;;
33403;SDS011;19751;40.274;18.268;2023-02-26T06:09:41;47.92;;;11.88;;
33403;SDS011;19751;40.274;18.268;2023-02-26T06:12:06;35.78;;;8.52;;
33403;SDS011;19751;40.274;18.268;2023-02-26T06:14:32;43.97;;;9.38;;
33403;SDS011;19751;40.274;18.268;2023-02-26T06:16:58;32.97;;;8.32;;
33403;SDS011;19751;40.274;18.268;2023-02-26T06:19:24;44.25;;;9.98;;
33403;SDS011;19751;40.274;18.268;2023-02-26T06:21:50;40.58;;;9.77;;
33403;SDS011;19751;40.274;18.268;2023-02-26T06:24:17;49.35;;;10.50;;
33403;SDS011;19751;40.274;18.268;2023-02-26T06:26:43;29.90;;;7.75;;
33403;SDS011;19751;40.274;18.268;2023-02-26T06:29:08;43.63;;;8.25;;
33403;SDS011;19751;40.274;18.268;2023-02-26T06:31:34;38.83;;;8.38;;
33403;SDS011;19751;40.274;18.268;2023-02-26T06:33:59;35.72;;;8.75;;
33403;SDS011;19751;40.274;18.268;2023-02-26T06:36:25;43.55;;;10.75;;
33403;SDS011;19751;40.274;18.268;2023-02-26T06:38:50;31.48;;;8.63;;
33403;SDS011;19751;40.274;18.268;2023-02-26T06:41:16;44.53;;;10.77;;
33403;SDS011;19751;40.274;18.268;2023-02-26T06:43:41;42.75;;;9.05;;
33403;SDS011;19751;40.274;18.268;2023-02-26T06:46:07;46.78;;;12.57;;
33403;SDS011;19751;40.274;18.268;2023-02-26T06:48:32;40.30;;;10.85;;
33403;SDS011;19751;40.274;18.268;2023-02-26T06:50:58;33.35;;;8.00;;
33403;SDS011;19751;40.274;18.268;2023-02-26T06:53:23;43.90;;;7.68;;
33403;SDS011;19751;40.274;18.268;2023-02-26T06:55:50;42.72;;;8.77;;
33403;SDS011;19751;40.274;18.268;2023-02-26T06:58:16;56.78;;;11.38;;
33403;SDS011;19751;40.274;18.268;2023-02-26T07:00:42;43.53;;;11.10;;
33403;SDS011;19751;40.274;18.268;2023-02-26T07:03:12;47.95;;;10.63;;
33403;SDS011;19751;40.274;18.268;2023-02-26T07:05:39;41.58;;;8.85;;
33403;SDS011;19751;40.274;18.268;2023-02-26T07:08:05;38.67;;;7.47;;
33403;SDS011;19751;40.274;18.268;2023-02-26T07:10:31;41.67;;;8.15;;
33403;SDS011;19751;40.274;18.268;2023-02-26T07:12:58;48.00;;;10.50;;
33403;SDS011;19751;40.274;18.268;2023-02-26T07:15:23;43.25;;;8.90;;
33403;SDS011;19751;40.274;18.268;2023-02-26T07:17:49;42.63;;;9.07;;
33403;SDS011;19751;40.274;18.268;2023-02-26T07:20:14;38.70;;;10.00;;
33403;SDS011;19751;40.274;18.268;2023-02-26T07:22:42;28.60;;;7.28;;
33403;SDS011;19751;40.274;18.268;2023-02-26T07:25:11;36.50;;;8.85;;
33403;SDS011;19751;40.274;18.268;2023-02-26T07:27:37;39.72;;;8.35;;
33403;SDS011;19751;40.274;18.268;2023-02-26T07:30:03;42.63;;;10.18;;
33403;SDS011;19751;40.274;18.268;2023-02-26T07:32:30;33.17;;;10.00;;
33403;SDS011;19751;40.274;18.268;2023-02-26T07:34:56;38.33;;;9.80;;
33403;SDS011;19751;40.274;18.268;2023-02-26T07:37:21;32.33;;;8.25;;
33403;SDS011;19751;40.274;18.268;2023-02-26T07:39:47;41.10;;;11.20;;
33403;SDS011;19751;40.274;18.268;2023-02-26T07:42:12;45.03;;;12.55;;
33403;SDS011;19751;40.274;18.268;2023-02-26T07:44:38;45.85;;;9.93;;
33403;SDS011;19751;40.274;18.268;2023-02-26T07:47:03;41.30;;;10.90;;
33403;SDS011;19751;40.274;18.268;2023-02-26T07:49:29;38.05;;;10.07;;
33403;SDS011;19751;40.274;18.268;2023-02-26T07:51:56;42.05;;;10.07;;
33403;SDS011;19751;40.274;18.268;2023-02-26T07:54:22;52.92;;;13.68;;
33403;SDS011;19751;40.274;18.268;2023-02-26T07:56:48;43.30;;;9.75;;
33403;SDS011;19751;40.274;18.268;2023-02-26T07:59:13;39.47;;;10.15;;
33403;SDS011;19751;40.274;18.268;2023-02-26T08:01:39;38.25;;;9.20;;
33403;SDS011;19751;40.274;18.268;2023-02-26T08:04:04;42.67;;;9.85;;
33403;SDS011;19751;40.274;18.268;2023-02-26T08:06:30;51.70;;;9.77;;
33403;SDS011;19751;40.274;18.268;2023-02-26T08:08:56;35.70;;;9.27;;
33403;SDS011;19751;40.274;18.268;2023-02-26T08:11:21;49.70;;;11.73;;
33403;SDS011;19751;40.274;18.268;2023-02-26T08:13:47;50.05;;;10.55;;
33403;SDS011;19751;40.274;18.268;2023-02-26T08:16:12;43.58;;;9.93;;
33403;SDS011;19751;40.274;18.268;2023-02-26T08:18:38;48.70;;;9.60;;
33403;SDS011;19751;40.274;18.268;2023-02-26T08:21:04;44.70;;;11.23;;
33403;SDS011;19751;40.274;18.268;2023-02-26T08:23:29;44.00;;;10.48;;
33403;SDS011;19751;40.274;18.268;2023-02-26T08:26:02;50.70;;;9.80;;
33403;SDS011;19751;40.274;18.268;2023-02-26T08:28:28;39.25;;;9.40;;
33403;SDS011;19751;40.274;18.268;2023-02-26T08:30:54;43.78;;;9.63;;
33403;SDS011;19751;40.274;18.268;2023-02-26T08:33:23;52.70;;;13.90;;
33403;SDS011;19751;40.274;18.268;2023-02-26T08:35:49;40.95;;;8.82;;
33403;SDS011;19751;40.274;18.268;2023-02-26T08:38:15;56.88;;;12.35;;
33403;SDS011;19751;40.274;18.268;2023-02-26T08:40:41;54.33;;;10.38;;
33403;SDS011;19751;40.274;18.268;2023-02-26T08:43:06;60.13;;;11.23;;
33403;SDS011;19751;40.274;18.268;2023-02-26T08:45:36;49.58;;;11.63;;
33403;SDS011;19751;40.274;18.268;2023-02-26T08:48:03;50.90;;;10.40;;
33403;SDS011;19751;40.274;18.268;2023-02-26T08:50:28;37.35;;;10.13;;
33403;SDS011;19751;40.274;18.268;2023-02-26T08:52:54;44.33;;;13.15;;
33403;SDS011;19751;40.274;18.268;2023-02-26T08:55:20;38.00;;;11.68;;
33403;SDS011;19751;40.274;18.268;2023-02-26T08:57:45;42.88;;;9.20;;
33403;SDS011;19751;40.274;18.268;2023-02-26T09:00:11;55.55;;;12.63;;
33403;SDS011;19751;40.274;18.268;2023-02-26T09:02:40;42.65;;;10.27;;
33403;SDS011;19751;40.274;18.268;2023-02-26T09:05:06;42.40;;;12.38;;
33403;SDS011;19751;40.274;18.268;2023-02-26T09:07:32;54.60;;;12.57;;
33403;SDS011;19751;40.274;18.268;2023-02-26T09:09:57;49.67;;;10.45;;
33403;SDS011;19751;40.274;18.268;2023-02-26T09:12:23;68.03;;;13.32;;
33403;SDS011;19751;40.274;18.268;2023-02-26T09:14:48;47.28;;;10.55;;
33403;SDS011;19751;40.274;18.268;2023-02-26T09:17:16;53.95;;;11.48;;
33403;SDS011;19751;40.274;18.268;2023-02-26T09:19:42;51.83;;;9.73;;
33403;SDS011;19751;40.274;18.268;2023-02-26T09:22:07;56.38;;;10.57;;
33403;SDS011;19751;40.274;18.268;2023-02-26T09:24:33;52.10;;;11.05;;
33403;SDS011;19751;40.274;18.268;2023-02-26T09:26:59;45.90;;;12.25;;
33403;SDS011;19751;40.274;18.268;2023-02-26T09:29:25;48.72;;;11.40;;
33403;SDS011;19751;40.274;18.268;2023-02-26T09:31:51;42.90;;;9.60;;
33403;SDS011;19751;40.274;18.268;2023-02-26T09:34:16;58.38;;;12.05;;
33403;SDS011;19751;40.274;18.268;2023-02-26T09:36:43;53.95;;;11.52;;
33403;SDS011;19751;40.274;18.268;2023-02-26T09:39:10;41.08;;;10.93;;
33403;SDS011;19751;40.274;18.268;2023-02-26T09:41:43;66.20;;;12.18;;
33403;SDS011;19751;40.274;18.268;2023-02-26T09:52:02;54.92;;;13.02;;
33403;SDS011;19751;40.274;18.268;2023-02-26T09:54:30;50.38;;;11.00;;
33403;SDS011;19751;40.274;18.268;2023-02-26T09:57:00;53.28;;;12.95;;
33403;SDS011;19751;40.274;18.268;2023-02-26T09:59:30;42.80;;;11.02;;
33403;SDS011;19751;40.274;18.268;2023-02-26T10:02:00;62.33;;;11.43;;
33403;SDS011;19751;40.274;18.268;2023-02-26T10:23:07;58.50;;;16.55;;
33403;SDS011;19751;40.274;18.268;2023-02-26T10:36:24;51.40;;;11.30;;
33403;SDS011;19751;40.274;18.268;2023-02-26T10:39:02;61.58;;;14.00;;
33403;SDS011;19751;40.274;18.268;2023-02-26T10:41:39;62.55;;;13.23;;
33403;SDS011;19751;40.274;18.268;2023-02-26T10:44:29;52.35;;;11.85;;
33403;SDS011;19751;40.274;18.268;2023-02-26T10:49:53;60.60;;;14.32;;
33403;SDS011;19751;40.274;18.268;2023-02-26T10:52:25;54.05;;;16.80;;
33403;SDS011;19751;40.274;18.268;2023-02-26T10:54:57;49.15;;;13.43;;
33403;SDS011;19751;40.274;18.268;2023-02-26T10:57:37;50.63;;;13.40;;
33403;SDS011;19751;40.274;18.268;2023-02-26T11:00:09;62.22;;;13.85;;
33403;SDS011;19751;40.274;18.268;2023-02-26T11:02:42;59.25;;;12.82;;
33403;SDS011;19751;40.274;18.268;2023-02-26T11:05:20;61.20;;;13.48;;
33403;SDS011;19751;40.274;18.268;2023-02-26T11:07:50;66.65;;;13.00;;
33403;SDS011;19751;40.274;18.268;2023-02-26T11:10:21;54.78;;;14.30;;
33403;SDS011;19751;40.274;18.268;2023-02-26T11:12:50;63.85;;;14.35;;
33403;SDS011;19751;40.274;18.268;2023-02-26T11:15:18;62.13;;;13.88;;
33403;SDS011;19751;40.274;18.268;2023-02-26T11:17:52;58.40;;;14.70;;
33403;SDS011;19751;40.274;18.268;2023-02-26T11:23:02;62.90;;;17.17;;
33403;SDS011;19751;40.274;18.268;2023-02-26T11:25:32;59.60;;;14.52;;
33403;SDS011;19751;40.274;18.268;2023-02-26T11:28:06;57.15;;;13.15;;
33403;SDS011;19751;40.274;18.268;2023-02-26T11:30:43;50.47;;;14.37;;
33403;SDS011;19751;40.274;18.268;2023-02-26T11:33:15;58.20;;;12.98;;
33403;SDS011;19751;40.274;18.268;2023-02-26T11:35:43;74.57;;;13.85;;
33403;SDS011;19751;40.274;18.268;2023-02-26T11:38:14;68.28;;;21.40;;
33403;SDS011;19751;40.274;18.268;2023-02-26T11:40:45;101.47;;;35.15;;
33403;SDS011;19751;40.274;18.268;2023-02-26T11:43:17;79.72;;;26.08;;
33403;SDS011;19751;40.274;18.268;2023-02-26T11:45:58;73.43;;;24.17;;
33403;SDS011;19751;40.274;18.268;2023-02-26T11:48:32;78.30;;;23.63;;
33403;SDS011;19751;40.274;18.268;2023-02-26T11:51:15;84.70;;;19.52;;
33403;SDS011;19751;40.274;18.268;2023-02-26T11:53:52;60.33;;;15.95;;
33403;SDS011;19751;40.274;18.268;2023-02-26T11:56:33;64.43;;;16.52;;
33403;SDS011;19751;40.274;18.268;2023-02-26T11:59:07;81.85;;;25.80;;
33403;SDS011;19751;40.274;18.268;2023-02-26T12:01:44;79.05;;;29.60;;
33403;SDS011;19751;40.274;18.268;2023-02-26T12:04:10;66.38;;;22.50;;
33403;SDS011;19751;40.274;18.268;2023-02-26T12:06:37;87.57;;;26.55;;
33403;SDS011;19751;40.274;18.268;2023-02-26T12:09:03;82.60;;;24.52;;
33403;SDS011;19751;40.274;18.268;2023-02-26T12:45:11;75.50;;;18.25;;
33403;SDS011;19751;40.274;18.268;2023-02-26T13:02:09;81.93;;;21.02;;
33403;SDS011;19751;40.274;18.268;2023-02-26T13:17:48;69.75;;;15.48;;
33403;SDS011;19751;40.274;18.268;2023-02-26T13:20:25;66.15;;;15.65;;
33403;SDS011;19751;40.274;18.268;2023-02-26T13:23:00;68.40;;;16.08;;
33403;SDS011;19751;40.274;18.268;2023-02-26T13:25:42;75.40;;;15.90;;
33403;SDS011;19751;40.274;18.268;2023-02-26T13:30:59;93.43;;;17.48;;
33403;SDS011;19751;40.274;18.268;2023-02-26T13:33:28;71.07;;;15.52;;
33403;SDS011;19751;40.274;18.268;2023-02-26T13:35:56;88.10;;;14.73;;
33403;SDS011;19751;40.274;18.268;2023-02-26T13:38:33;70.78;;;16.40;;
33403;SDS011;19751;40.274;18.268;2023-02-26T13:49:58;76.35;;;18.40;;
33403;SDS011;19751;40.274;18.268;2023-02-26T13:52:48;92.65;;;19.08;;
33403;SDS011;19751;40.274;18.268;2023-02-26T13:58:47;93.60;;;22.55;;
33403;SDS011;19751;40.274;18.268;2023-02-26T14:01:46;98.63;;;27.27;;
33403;SDS011;19751;40.274;18.268;2023-02-26T14:12:02;81.68;;;15.93;;
33403;SDS011;19751;40.274;18.268;2023-02-26T14:17:28;88.75;;;20.02;;
33403;SDS011;19751;40.274;18.268;2023-02-26T14:24:56;117.60;;;30.48;;
33403;SDS011;19751;40.274;18.268;2023-02-26T14:27:34;96.85;;;20.15;;
33403;SDS011;19751;40.274;18.268;2023-02-26T14:32:51;69.15;;;16.88;;
33403;SDS011;19751;40.274;18.268;2023-02-26T14:35:24;81.72;;;19.88;;
33403;SDS011;19751;40.274;18.268;2023-02-26T14:40:30;72.13;;;16.73;;
33403;SDS011;19751;40.274;18.268;2023-02-26T14:43:01;61.83;;;17.90;;
33403;SDS011;19751;40.274;18.268;2023-02-26T14:45:38;56.08;;;14.98;;
33403;SDS011;19751;40.274;18.268;2023-02-26T14:48:11;61.45;;;15.80;;
33403;SDS011;19751;40.274;18.268;2023-02-26T14:54:09;82.13;;;19.17;;
33403;SDS011;19751;40.274;18.268;2023-02-26T14:59:32;94.63;;;22.75;;
33403;SDS011;19751;40.274;18.268;2023-02-26T15:07:13;190.93;;;81.45;;
33403;SDS011;19751;40.274;18.268;2023-02-26T15:09:56;102.32;;;28.63;;
33403;SDS011;19751;40.274;18.268;2023-02-26T15:12:56;89.55;;;20.13;;
33403;SDS011;19751;40.274;18.268;2023-02-26T15:21:16;72.22;;;13.38;;
33403;SDS011;19751;40.274;18.268;2023-02-26T15:24:17;27.50;;;5.43;;
33403;SDS011;19751;40.274;18.268;2023-02-26T15:26:45;23.33;;;4.07;;
33403;SDS011;19751;40.274;18.268;2023-02-26T15:29:13;24.23;;;5.03;;
33403;SDS011;19751;40.274;18.268;2023-02-26T15:31:41;10.55;;;4.13;;
33403;SDS011;19751;40.274;18.268;2023-02-26T15:34:12;18.80;;;4.82;;
33403;SDS011;19751;40.274;18.268;2023-02-26T15:36:47;23.10;;;4.85;;
33403;SDS011;19751;40.274;18.268;2023-02-26T15:39:15;27.58;;;6.63;;
33403;SDS011;19751;40.274;18.268;2023-02-26T15:41:42;18.05;;;5.25;;
33403;SDS011;19751;40.274;18.268;2023-02-26T15:44:12;27.73;;;6.55;;
33403;SDS011;19751;40.274;18.268;2023-02-26T15:46:43;17.73;;;5.40;;
33403;SDS011;19751;40.274;18.268;2023-02-26T15:49:12;20.92;;;5.18;;
33403;SDS011;19751;40.274;18.268;2023-02-26T15:54:14;26.00;;;10.05;;
33403;SDS011;19751;40.274;18.268;2023-02-26T15:56:42;23.45;;;5.93;;
33403;SDS011;19751;40.274;18.268;2023-02-26T15:59:12;20.10;;;7.63;;
33403;SDS011;19751;40.274;18.268;2023-02-26T16:01:42;16.92;;;5.68;;
33403;SDS011;19751;40.274;18.268;2023-02-26T16:04:12;18.17;;;8.45;;
33403;SDS011;19751;40.274;18.268;2023-02-26T16:06:41;43.25;;;21.80;;
33403;SDS011;19751;40.274;18.268;2023-02-26T16:09:14;36.67;;;21.10;;
33403;SDS011;19751;40.274;18.268;2023-02-26T16:11:44;27.77;;;14.38;;
33403;SDS011;19751;40.274;18.268;2023-02-26T16:14:23;29.35;;;12.20;;
33403;SDS011;19751;40.274;18.268;2023-02-26T16:16:52;25.55;;;7.07;;
33403;SDS011;19751;40.274;18.268;2023-02-26T16:19:20;22.65;;;7.78;;
33403;SDS011;19751;40.274;18.268;2023-02-26T16:21:55;19.63;;;8.32;;
33403;SDS011;19751;40.274;18.268;2023-02-26T16:24:24;32.28;;;11.13;;
33403;SDS011;19751;40.274;18.268;2023-02-26T16:26:58;32.85;;;13.70;;
33403;SDS011;19751;40.274;18.268;2023-02-26T16:29:29;29.88;;;10.20;;
33403;SDS011;19751;40.274;18.268;2023-02-26T16:31:58;26.77;;;9.75;;
33403;SDS011;19751;40.274;18.268;2023-02-26T16:37:21;31.77;;;15.23;;
33403;SDS011;19751;40.274;18.268;2023-02-26T16:43:28;16.88;;;6.00;;
33403;SDS011;19751;40.274;18.268;2023-02-26T16:46:28;22.73;;;7.25;;
33403;SDS011;19751;40.274;18.268;2023-02-26T16:51:47;29.23;;;8.70;;
33403;SDS011;19751;40.274;18.268;2023-02-26T16:57:15;14.68;;;6.13;;
33403;SDS011;19751;40.274;18.268;2023-02-26T16:59:51;23.55;;;9.52;;
33403;SDS011;19751;40.274;18.268;2023-02-26T17:02:21;29.98;;;13.27;;
33403;SDS011;19751;40.274;18.268;2023-02-26T17:04:51;34.22;;;13.18;;
33403;SDS011;19751;40.274;18.268;2023-02-26T17:07:24;44.67;;;17.95;;
33403;SDS011;19751;40.274;18.268;2023-02-26T17:09:55;37.80;;;13.32;;
33403;SDS011;19751;40.274;18.268;2023-02-26T17:12:27;21.23;;;11.93;;
33403;SDS011;19751;40.274;18.268;2023-02-26T17:15:07;33.17;;;15.90;;
33403;SDS011;19751;40.274;18.268;2023-02-26T17:17:51;31.70;;;13.35;;
33403;SDS011;19751;40.274;18.268;2023-02-26T17:20:25;33.05;;;15.18;;
33403;SDS011;19751;40.274;18.268;2023-02-26T17:22:52;41.70;;;20.77;;
33403;SDS011;19751;40.274;18.268;2023-02-26T17:25:20;57.40;;;25.42;;
33403;SDS011;19751;40.274;18.268;2023-02-26T17:27:49;49.92;;;25.58;;
33403;SDS011;19751;40.274;18.268;2023-02-26T17:30:16;41.17;;;21.65;;
33403;SDS011;19751;40.274;18.268;2023-02-26T17:32:44;30.38;;;16.02;;
33403;SDS011;19751;40.274;18.268;2023-02-26T17:35:13;49.08;;;31.02;;
33403;SDS011;19751;40.274;18.268;2023-02-26T17:37:40;173.00;;;100.47;;
33403;SDS011;19751;40.274;18.268;2023-02-26T17:40:16;250.02;;;132.27;;
33403;SDS011;19751;40.274;18.268;2023-02-26T17:42:49;157.57;;;95.15;;
33403;SDS011;19751;40.274;18.268;2023-02-26T17:45:16;43.38;;;26.13;;
33403;SDS011;19751;40.274;18.268;2023-02-26T17:47:44;31.48;;;17.33;;
33403;SDS011;19751;40.274;18.268;2023-02-26T17:52:54;23.40;;;11.82;;
33403;SDS011;19751;40.274;18.268;2023-02-26T17:55:20;28.27;;;15.63;;
33403;SDS011;19751;40.274;18.268;2023-02-26T17:57:46;31.27;;;15.73;;
33403;SDS011;19751;40.274;18.268;2023-02-26T18:00:13;32.00;;;14.65;;
33403;SDS011;19751;40.274;18.268;2023-02-26T18:02:40;38.25;;;19.90;;
33403;SDS011;19751;40.274;18.268;2023-02-26T18:05:05;24.17;;;11.68;;
33403;SDS011;19751;40.274;18.268;2023-02-26T18:07:31;34.42;;;14.98;;
33403;SDS011;19751;40.274;18.268;2023-02-26T18:09:57;29.10;;;15.05;;
33403;SDS011;19751;40.274;18.268;2023-02-26T18:12:22;20.60;;;9.77;;
33403;SDS011;19751;40.274;18.268;2023-02-26T18:14:48;33.90;;;17.05;;